createdAt,value
2022-09-03T00:00:32.929Z,49.99
2022-09-03T00:02:59.440Z,49.95
2022-09-03T00:05:25.779Z,50.31
2022-09-03T00:07:52.153Z,50.40
2022-09-03T00:10:18.544Z,50.23
2022-09-03T00:12:44.917Z,50.20
2022-09-03T00:15:11.299Z,50.06
2022-09-03T00:17:37.682Z,50.09
2022-09-03T00:20:04.116Z,49.93
2022-09-03T00:22:30.501Z,50.12
2022-09-03T00:24:56.883Z,50.22
2022-09-03T00:27:23.252Z,50.18
2022-09-03T00:29:49.655Z,50.12
2022-09-03T00:32:16.034Z,49.82
2022-09-03T00:34:42.418Z,50.19
2022-09-03T00:37:12.399Z,50.09
2022-09-03T00:39:35.251Z,50.10
2022-09-03T00:42:01.592Z,50.26
2022-09-03T00:44:27.974Z,50.24
2022-09-03T00:46:54.354Z,50.25
2022-09-03T00:49:20.738Z,50.26
2022-09-03T00:51:47.113Z,50.13
2022-09-03T00:54:13.498Z,50.08
2022-09-03T00:56:39.882Z,50.27
2022-09-03T00:59:06.264Z,50.10
2022-09-03T01:01:32.754Z,50.17
2022-09-03T01:03:59.023Z,50.14
2022-09-03T01:06:25.393Z,49.97
2022-09-03T01:08:51.862Z,50.08
2022-09-03T01:11:18.244Z,50.10
2022-09-03T01:13:44.630Z,49.84
2022-09-03T01:16:11.075Z,49.85
2022-09-03T01:18:37.384Z,49.73
2022-09-03T01:21:03.757Z,49.74
2022-09-03T01:23:30.139Z,49.74
2022-09-03T01:25:56.512Z,49.64
2022-09-03T01:28:22.994Z,50.15
2022-09-03T01:30:49.348Z,50.05
2022-09-03T01:33:15.652Z,49.68
2022-09-03T01:35:42.038Z,49.60
2022-09-03T01:38:08.422Z,49.53
2022-09-03T01:40:34.806Z,49.81
2022-09-03T01:43:01.214Z,49.87
2022-09-03T01:45:27.646Z,49.55
2022-09-03T01:47:54.079Z,49.72
2022-09-03T01:50:20.452Z,49.69
2022-09-03T01:52:46.946Z,49.51
2022-09-03T01:55:13.334Z,49.97
2022-09-03T01:57:39.714Z,49.81
2022-09-03T02:00:06.099Z,49.64
2022-09-03T02:02:32.578Z,49.51
2022-09-03T02:04:58.889Z,49.54
2022-09-03T02:07:25.270Z,49.70
2022-09-03T02:09:51.654Z,49.64
2022-09-03T02:12:18.042Z,49.83
2022-09-03T02:14:44.424Z,49.59
2022-09-03T02:17:10.870Z,49.66
2022-09-03T02:19:37.249Z,49.71
2022-09-03T02:22:03.635Z,49.49
2022-09-03T02:24:30.022Z,49.58
2022-09-03T02:26:56.403Z,49.46
2022-09-03T02:29:22.789Z,49.48
2022-09-03T02:31:49.175Z,49.37
2022-09-03T02:34:16.503Z,49.48
2022-09-03T02:36:43.280Z,49.54
2022-09-03T02:39:08.340Z,49.43
2022-09-03T02:41:34.758Z,49.34
2022-09-03T02:44:01.134Z,49.30
2022-09-03T02:46:27.613Z,49.43
2022-09-03T02:48:53.948Z,49.61
2022-09-03T02:51:20.338Z,49.34
2022-09-03T02:53:46.712Z,49.36
2022-09-03T02:56:13.100Z,49.61
2022-09-03T02:58:39.476Z,49.39
2022-09-03T03:01:05.912Z,49.45
2022-09-03T03:03:32.240Z,49.27
2022-09-03T03:05:58.624Z,49.20
2022-09-03T03:08:25.098Z,49.64
2022-09-03T03:10:51.391Z,49.42
2022-09-03T03:13:17.792Z,49.53
2022-09-03T03:15:44.188Z,49.34
2022-09-03T03:18:10.577Z,49.16
2022-09-03T03:20:36.955Z,49.18
2022-09-03T03:23:03.340Z,49.23
2022-09-03T03:25:29.719Z,49.20
2022-09-03T03:27:56.099Z,49.14
2022-09-03T03:30:22.478Z,49.13
2022-09-03T03:32:48.856Z,49.13
2022-09-03T03:35:15.238Z,49.11
2022-09-03T03:37:41.746Z,49.26
2022-09-03T03:40:08.135Z,49.72
2022-09-03T03:42:34.532Z,49.55
2022-09-03T03:45:00.919Z,49.43
2022-09-03T03:47:27.301Z,49.10
2022-09-03T03:49:53.710Z,49.06
2022-09-03T03:52:20.097Z,49.03
2022-09-03T03:54:46.474Z,49.29
2022-09-03T03:57:12.883Z,49.42
2022-09-03T03:59:39.270Z,49.32
2022-09-03T04:02:05.677Z,49.35
2022-09-03T04:04:32.035Z,49.37
2022-09-03T04:06:58.426Z,49.02
2022-09-03T04:09:24.803Z,48.96
2022-09-03T04:11:51.189Z,48.94
2022-09-03T04:14:17.626Z,49.16
2022-09-03T04:16:44.047Z,49.22
2022-09-03T04:19:10.397Z,49.14
2022-09-03T04:21:36.798Z,49.48
2022-09-03T04:24:03.179Z,49.05
2022-09-03T04:26:29.561Z,49.07
2022-09-03T04:28:55.944Z,49.08
2022-09-03T04:31:22.326Z,49.13
2022-09-03T04:33:48.786Z,48.97
2022-09-03T04:36:15.169Z,49.13
2022-09-03T04:38:41.548Z,49.19
2022-09-03T04:41:07.946Z,49.07
2022-09-03T04:43:34.321Z,48.95
2022-09-03T04:46:00.735Z,48.86
2022-09-03T04:48:27.120Z,49.40
2022-09-03T04:50:53.515Z,49.13
2022-09-03T04:53:19.894Z,49.03
2022-09-03T04:55:46.278Z,48.94
2022-09-03T04:58:12.660Z,48.81
2022-09-03T05:00:39.056Z,48.84
2022-09-03T05:03:05.472Z,49.08
2022-09-03T05:05:31.907Z,48.97
2022-09-03T05:07:58.317Z,48.85
2022-09-03T05:10:24.699Z,48.78
2022-09-03T05:12:51.103Z,48.90
2022-09-03T05:15:17.490Z,48.99
2022-09-03T05:17:43.971Z,49.16
2022-09-03T05:20:10.410Z,49.39
2022-09-03T05:22:36.784Z,49.53
2022-09-03T05:25:03.168Z,49.71
2022-09-03T05:27:29.549Z,49.85
2022-09-03T05:29:55.934Z,50.07
2022-09-03T05:32:22.317Z,50.29
2022-09-03T05:34:48.709Z,50.34
2022-09-03T05:37:15.080Z,50.46
2022-09-03T05:39:41.502Z,50.53
2022-09-03T05:42:07.844Z,50.48
2022-09-03T05:44:34.234Z,50.43
2022-09-03T05:47:00.623Z,50.39
2022-09-03T05:49:27.013Z,50.40
2022-09-03T05:51:53.393Z,50.28
2022-09-03T05:54:19.766Z,50.26
2022-09-03T05:56:46.153Z,50.14
2022-09-03T05:59:12.544Z,50.03
2022-09-03T06:01:38.995Z,49.85
2022-09-03T06:04:05.311Z,49.69
2022-09-03T06:06:31.686Z,49.61
2022-09-03T06:08:58.080Z,49.45
2022-09-03T06:11:24.454Z,49.30
2022-09-03T06:13:50.835Z,49.14
2022-09-03T06:16:17.271Z,49.05
2022-09-03T06:18:43.679Z,48.99
2022-09-03T06:21:10.064Z,48.84
2022-09-03T06:23:36.497Z,48.74
2022-09-03T06:26:05.271Z,48.81
2022-09-03T06:28:29.227Z,48.70
2022-09-03T06:30:55.604Z,48.61
2022-09-03T06:33:22.023Z,48.58
2022-09-03T06:35:49.328Z,48.48
2022-09-03T06:38:14.807Z,48.47
2022-09-03T06:40:41.134Z,48.29
2022-09-03T06:43:07.502Z,48.13
2022-09-03T06:45:33.934Z,48.08
2022-09-03T06:48:00.273Z,48.02
2022-09-03T06:50:27.420Z,48.01
2022-09-03T06:52:53.029Z,47.75
2022-09-03T06:55:19.439Z,47.90
2022-09-03T06:57:45.815Z,47.70
2022-09-03T07:00:12.200Z,47.64
2022-09-03T07:02:42.749Z,47.64
2022-09-03T07:05:04.964Z,47.59
2022-09-03T07:07:31.343Z,47.40
2022-09-03T07:09:57.728Z,47.37
2022-09-03T07:12:24.108Z,47.30
2022-09-03T07:14:51.233Z,47.22
2022-09-03T07:17:16.899Z,47.25
2022-09-03T07:19:43.289Z,47.06
2022-09-03T07:22:09.670Z,46.97
2022-09-03T07:24:36.048Z,46.91
2022-09-03T07:27:02.434Z,46.98
2022-09-03T07:29:28.812Z,46.86
2022-09-03T07:31:55.233Z,46.80
2022-09-03T07:34:22.076Z,46.63
2022-09-03T07:36:48.950Z,46.61
2022-09-03T07:39:14.544Z,46.54
2022-09-03T07:41:40.920Z,46.48
2022-09-03T07:44:07.418Z,46.29
2022-09-03T07:46:33.868Z,46.27
2022-09-03T07:49:00.197Z,46.25
2022-09-03T07:51:26.630Z,46.14
2022-09-03T07:53:52.964Z,46.33
2022-09-03T07:56:19.374Z,46.05
2022-09-03T07:58:45.757Z,45.99
2022-09-03T08:01:12.181Z,45.89
2022-09-03T08:03:38.552Z,45.86
2022-09-03T08:06:04.903Z,45.83
2022-09-03T08:08:35.537Z,45.82
2022-09-03T08:10:57.666Z,45.71
2022-09-03T08:13:24.035Z,45.62
2022-09-03T08:15:50.669Z,45.62
2022-09-03T08:18:17.057Z,45.53
2022-09-03T08:20:43.400Z,45.36
2022-09-03T08:23:09.776Z,45.36
2022-09-03T08:25:36.165Z,45.33
2022-09-03T08:28:02.538Z,45.29
2022-09-03T08:30:28.929Z,45.23
2022-09-03T08:32:55.314Z,45.12
2022-09-03T08:35:21.767Z,45.14
2022-09-03T08:37:48.158Z,45.11
2022-09-03T08:40:15.628Z,44.99
2022-09-03T08:42:40.957Z,44.94
2022-09-03T08:45:08.766Z,44.85
2022-09-03T08:47:33.716Z,44.86
2022-09-03T08:50:00.108Z,44.81
2022-09-03T08:52:26.487Z,44.86
2022-09-03T08:54:52.876Z,44.76
2022-09-03T08:57:19.316Z,44.59
2022-09-03T08:59:45.699Z,44.59
2022-09-03T09:02:12.171Z,44.70
2022-09-03T09:04:38.458Z,44.72
2022-09-03T09:07:04.839Z,44.56
2022-09-03T09:09:31.224Z,44.56
2022-09-03T09:11:57.601Z,44.59
2022-09-03T09:14:23.992Z,44.52
2022-09-03T09:16:50.365Z,44.45
2022-09-03T09:19:16.759Z,44.36
2022-09-03T09:21:43.129Z,44.33
2022-09-03T09:24:09.516Z,44.21
2022-09-03T09:26:35.898Z,44.33
2022-09-03T09:29:02.279Z,44.27
2022-09-03T09:31:28.698Z,44.22
2022-09-03T09:33:55.088Z,44.22
2022-09-03T09:36:21.469Z,44.19
2022-09-03T09:38:47.859Z,44.17
2022-09-03T09:41:14.267Z,44.11
2022-09-03T09:43:40.642Z,44.08
2022-09-03T09:46:07.067Z,44.01
2022-09-03T09:48:33.408Z,43.97
2022-09-03T09:50:59.795Z,43.92
2022-09-03T09:53:26.183Z,43.88
2022-09-03T09:55:52.562Z,43.85
2022-09-03T09:58:18.939Z,43.84
2022-09-03T10:00:45.325Z,43.82
2022-09-03T10:03:11.748Z,43.83
2022-09-03T10:05:38.095Z,43.74
2022-09-03T10:08:04.516Z,43.75
2022-09-03T10:10:30.881Z,43.69
2022-09-03T10:12:57.262Z,43.70
2022-09-03T10:15:23.649Z,43.63
2022-09-03T10:17:50.049Z,43.56
2022-09-03T10:20:16.433Z,43.49
2022-09-03T10:22:56.573Z,43.47
2022-09-03T10:25:09.201Z,43.47
2022-09-03T10:27:35.682Z,43.47
2022-09-03T10:30:02.126Z,43.39
2022-09-03T10:32:37.841Z,43.37
2022-09-03T10:34:54.905Z,43.31
2022-09-03T10:37:21.290Z,43.27
2022-09-03T10:39:51.651Z,43.21
2022-09-03T10:42:14.300Z,43.21
2022-09-03T10:44:40.681Z,43.20
2022-09-03T10:47:07.073Z,43.13
2022-09-03T10:49:33.457Z,43.05
2022-09-03T10:51:59.851Z,43.07
2022-09-03T10:54:26.243Z,43.02
2022-09-03T10:56:52.630Z,43.01
2022-09-03T10:59:19.007Z,43.01
2022-09-03T11:01:45.429Z,42.86
2022-09-03T11:04:11.849Z,42.81
2022-09-03T11:06:38.251Z,42.82
2022-09-03T11:09:06.736Z,42.82
2022-09-03T11:11:31.037Z,42.79
2022-09-03T11:13:57.412Z,42.76
2022-09-03T11:16:23.858Z,42.63
2022-09-03T11:18:50.192Z,42.58
2022-09-03T11:21:16.581Z,42.56
2022-09-03T11:23:42.999Z,42.50
2022-09-03T11:26:09.389Z,42.48
2022-09-03T11:28:35.774Z,42.44
2022-09-03T11:31:02.200Z,42.44
2022-09-03T11:33:28.537Z,42.34
2022-09-03T11:35:54.919Z,42.27
2022-09-03T11:38:21.327Z,42.24
2022-09-03T11:40:47.715Z,42.16
2022-09-03T11:43:14.096Z,42.16
2022-09-03T11:45:40.632Z,42.07
2022-09-03T11:48:06.885Z,42.01
2022-09-03T11:50:33.340Z,41.95
2022-09-03T11:52:59.676Z,41.89
2022-09-03T11:55:26.055Z,41.81
2022-09-03T11:57:52.441Z,41.71
2022-09-03T12:00:18.827Z,41.59
2022-09-03T12:02:45.323Z,41.51
2022-09-03T12:05:11.611Z,41.41
2022-09-03T12:07:37.991Z,41.37
2022-09-03T12:10:04.367Z,41.31
2022-09-03T12:12:30.839Z,41.26
2022-09-03T12:14:57.227Z,41.17
2022-09-03T12:17:23.612Z,41.08
2022-09-03T12:19:49.998Z,41.07
2022-09-03T12:22:16.384Z,41.01
2022-09-03T12:24:42.765Z,40.90
2022-09-03T12:27:09.149Z,40.95
2022-09-03T12:29:35.574Z,41.17
2022-09-03T12:32:01.957Z,41.32
2022-09-03T12:34:28.344Z,41.39
2022-09-03T12:36:54.731Z,41.65
2022-09-03T12:40:04.772Z,41.63
2022-09-03T12:41:47.544Z,41.62
2022-09-03T12:44:13.876Z,41.64
2022-09-03T12:46:40.310Z,41.72
2022-09-03T12:51:51.191Z,41.37
2022-09-03T12:53:59.463Z,41.60
2022-09-03T12:56:25.951Z,41.45
2022-09-03T12:58:52.263Z,41.45
2022-09-03T13:01:18.742Z,41.50
2022-09-03T13:03:45.035Z,41.42
2022-09-03T13:06:11.424Z,39.24
2022-09-03T13:08:37.821Z,37.89
2022-09-03T13:11:04.204Z,37.25
2022-09-03T13:13:30.601Z,36.96
2022-09-03T13:15:56.989Z,36.77
2022-09-03T13:18:23.379Z,36.64
2022-09-03T13:20:49.765Z,36.46
2022-09-03T13:23:16.207Z,36.53
2022-09-03T13:25:42.561Z,36.50
2022-09-03T13:28:08.934Z,36.37
2022-09-03T13:30:35.394Z,36.40
2022-09-03T13:33:01.767Z,36.32
2022-09-03T13:35:28.183Z,36.31
2022-09-03T13:37:54.572Z,36.22
2022-09-03T13:40:20.952Z,36.19
2022-09-03T13:42:47.355Z,36.10
2022-09-03T13:45:13.738Z,36.02
2022-09-03T13:47:40.120Z,35.86
2022-09-03T13:50:06.498Z,35.77
2022-09-03T13:52:32.888Z,36.73
2022-09-03T13:54:59.262Z,36.24
2022-09-03T13:57:25.643Z,36.16
2022-09-03T13:59:52.026Z,36.38
2022-09-03T14:02:18.482Z,37.26
2022-09-03T14:04:44.789Z,38.10
2022-09-03T14:07:11.203Z,38.97
2022-09-03T14:09:37.740Z,39.35
2022-09-03T14:12:04.116Z,39.54
2022-09-03T14:14:30.508Z,39.64
2022-09-03T14:16:56.914Z,39.69
2022-09-03T14:19:23.278Z,39.71
2022-09-03T14:21:49.666Z,40.02
2022-09-03T14:24:16.052Z,39.22
2022-09-03T14:26:42.446Z,39.37
2022-09-03T14:29:08.882Z,38.84
2022-09-03T14:31:35.321Z,39.54
2022-09-03T14:34:01.665Z,39.36
2022-09-03T14:36:28.061Z,38.75
2022-09-03T14:38:54.473Z,39.06
2022-09-03T14:41:20.885Z,39.02
2022-09-03T14:43:47.268Z,38.51
2022-09-03T14:46:13.833Z,39.74
2022-09-03T14:48:40.105Z,39.86
2022-09-03T14:51:06.504Z,39.70
2022-09-03T14:53:32.925Z,40.18
2022-09-03T14:55:59.324Z,40.96
2022-09-03T14:58:25.717Z,40.92
2022-09-03T15:00:52.159Z,40.95
2022-09-03T15:03:18.491Z,41.55
2022-09-03T15:05:44.919Z,41.83
2022-09-03T15:08:11.320Z,41.87
2022-09-03T15:10:37.699Z,41.93
2022-09-03T15:13:04.086Z,42.25
2022-09-03T15:15:30.473Z,42.00
2022-09-03T15:17:56.858Z,42.17
2022-09-03T15:20:23.249Z,41.96
2022-09-03T15:22:50.273Z,42.11
2022-09-03T15:25:16.023Z,41.77
2022-09-03T15:27:42.411Z,42.19
2022-09-03T15:30:08.914Z,41.89
2022-09-03T15:32:35.322Z,42.17
2022-09-03T15:35:01.701Z,42.29
2022-09-03T15:37:28.091Z,42.48
2022-09-03T15:39:54.533Z,42.63
2022-09-03T15:42:20.981Z,42.93
2022-09-03T15:44:47.368Z,42.92
2022-09-03T15:47:14.319Z,43.29
2022-09-03T15:49:40.157Z,43.21
2022-09-03T15:52:06.543Z,43.22
2022-09-03T15:54:32.921Z,43.41
2022-09-03T15:56:59.318Z,43.30
2022-09-03T15:59:25.705Z,43.21
2022-09-03T16:01:52.094Z,43.12
2022-09-03T16:04:18.504Z,43.18
2022-09-03T16:06:44.888Z,43.24
2022-09-03T16:09:11.268Z,43.29
2022-09-03T16:11:37.654Z,42.92
2022-09-03T16:14:04.028Z,42.76
2022-09-03T16:16:30.514Z,43.08
2022-09-03T16:18:56.802Z,43.14
2022-09-03T16:21:23.299Z,43.15
2022-09-03T16:23:49.681Z,42.96
2022-09-03T16:26:16.063Z,42.92
2022-09-03T16:28:42.455Z,42.86
2022-09-03T16:31:08.859Z,42.83
2022-09-03T16:33:35.212Z,42.96
2022-09-03T16:36:01.599Z,42.84
2022-09-03T16:38:27.989Z,42.85
2022-09-03T16:40:54.379Z,42.75
2022-09-03T16:43:39.272Z,42.81
2022-09-03T16:45:47.435Z,42.70
2022-09-03T16:48:13.755Z,42.82
2022-09-03T16:50:40.181Z,43.14
2022-09-03T16:53:06.559Z,44.24
2022-09-03T16:55:32.938Z,44.50
2022-09-03T16:57:59.320Z,44.86
2022-09-03T17:00:25.703Z,43.17
2022-09-03T17:02:52.117Z,42.65
2022-09-03T17:05:18.467Z,42.72
2022-09-03T17:07:44.918Z,42.73
2022-09-03T17:10:11.295Z,42.50
2022-09-03T17:12:37.682Z,42.50
2022-09-03T17:15:04.073Z,42.44
2022-09-03T17:17:30.445Z,42.49
2022-09-03T17:19:56.855Z,42.42
2022-09-03T17:22:23.210Z,42.44
2022-09-03T17:24:50.550Z,42.47
2022-09-03T17:27:16.014Z,42.47
2022-09-03T17:29:42.398Z,42.48
2022-09-03T17:32:08.778Z,42.44
2022-09-03T17:34:35.283Z,42.45
2022-09-03T17:37:01.663Z,42.45
2022-09-03T17:39:28.129Z,42.44
2022-09-03T17:41:54.437Z,42.40
2022-09-03T17:44:20.832Z,42.40
2022-09-03T17:46:47.276Z,42.44
2022-09-03T17:49:13.596Z,42.43
2022-09-03T17:51:39.973Z,42.44
2022-09-03T17:54:06.361Z,42.50
2022-09-03T17:56:32.741Z,42.52
2022-09-03T17:58:59.119Z,42.49
2022-09-03T18:01:25.553Z,42.52
2022-09-03T18:03:51.931Z,42.54
2022-09-03T18:06:18.284Z,42.49
2022-09-03T18:08:44.667Z,42.53
2022-09-03T18:11:11.048Z,42.50
2022-09-03T18:13:37.432Z,42.45
2022-09-03T18:16:03.875Z,42.51
2022-09-03T18:18:30.191Z,42.49
2022-09-03T18:21:20.734Z,42.52
2022-09-03T18:23:23.049Z,42.55
2022-09-03T18:25:49.332Z,42.47
2022-09-03T18:28:15.724Z,42.50
2022-09-03T18:30:42.097Z,42.49
2022-09-03T18:33:08.487Z,42.50
2022-09-03T18:35:36.576Z,42.49
2022-09-03T18:38:01.252Z,42.42
2022-09-03T18:40:27.628Z,42.51
2022-09-03T18:42:54.041Z,42.55
2022-09-03T18:45:22.507Z,42.53
2022-09-03T18:48:06.019Z,42.48
2022-09-03T18:50:13.195Z,42.53
2022-09-03T18:52:39.582Z,42.52
2022-09-03T18:55:08.291Z,42.50
2022-09-03T18:57:32.340Z,42.50
2022-09-03T18:59:58.712Z,42.47
2022-09-03T19:02:25.177Z,42.52
2022-09-03T19:04:51.471Z,42.48
2022-09-03T19:07:18.003Z,42.46
2022-09-03T19:09:44.381Z,42.46
2022-09-03T19:12:12.449Z,42.46
2022-09-03T19:14:37.148Z,42.50
2022-09-03T19:17:03.531Z,42.42
2022-09-03T19:19:29.912Z,42.47
2022-09-03T19:21:59.670Z,42.47
2022-09-03T19:24:23.940Z,42.42
2022-09-03T19:26:49.127Z,42.42
2022-09-03T19:29:15.500Z,42.39
2022-09-03T19:31:42.022Z,42.43
2022-09-03T19:34:08.309Z,42.43
2022-09-03T19:36:34.699Z,42.40
2022-09-03T19:39:01.068Z,42.34
2022-09-03T19:41:27.460Z,42.37
2022-09-03T19:43:53.839Z,42.37
2022-09-03T19:46:20.344Z,42.33
2022-09-03T19:48:46.673Z,42.37
2022-09-03T19:51:13.087Z,42.39
2022-09-03T19:53:39.467Z,42.37
2022-09-03T19:56:07.848Z,42.34
2022-09-03T19:58:43.244Z,42.35
2022-09-03T20:00:58.722Z,42.42
2022-09-03T20:03:25.125Z,42.41
2022-09-03T20:05:51.504Z,42.50
2022-09-03T20:08:17.889Z,42.50
2022-09-03T20:10:44.276Z,42.43
2022-09-03T20:13:10.680Z,42.46
2022-09-03T20:15:37.150Z,42.41
2022-09-03T20:18:03.520Z,42.48
2022-09-03T20:20:29.900Z,42.47
2022-09-03T20:22:56.285Z,42.47
2022-09-03T20:25:22.664Z,42.50
2022-09-03T20:27:49.049Z,42.48
2022-09-03T20:30:15.431Z,42.47
2022-09-03T20:32:41.841Z,42.45
2022-09-03T20:35:08.227Z,42.44
2022-09-03T20:37:34.636Z,42.47
2022-09-03T20:40:01.044Z,42.51
2022-09-03T20:42:27.404Z,42.47
2022-09-03T20:44:53.787Z,42.50
2022-09-03T20:47:20.166Z,42.53
2022-09-03T20:49:46.552Z,42.50
2022-09-03T20:52:12.928Z,42.53
2022-09-03T20:54:39.306Z,42.54
2022-09-03T20:57:05.690Z,42.50
2022-09-03T20:59:32.071Z,42.49
2022-09-03T21:01:58.641Z,42.50
2022-09-03T21:04:24.914Z,42.54
2022-09-03T21:06:51.293Z,42.53
2022-09-03T21:09:17.701Z,42.53
2022-09-03T21:11:44.089Z,42.54
2022-09-03T21:14:10.603Z,42.53
2022-09-03T21:16:36.991Z,42.56
2022-09-03T21:19:03.370Z,42.60
2022-09-03T21:21:32.914Z,42.59
2022-09-03T21:23:56.225Z,42.58
2022-09-03T21:26:22.766Z,42.59
2022-09-03T21:28:49.157Z,42.60
2022-09-03T21:31:15.654Z,42.62
2022-09-03T21:33:41.939Z,42.64
2022-09-03T21:36:08.320Z,42.66
2022-09-03T21:38:34.702Z,42.66
2022-09-03T21:41:01.080Z,42.69
2022-09-03T21:43:27.462Z,42.71
2022-09-03T21:45:53.868Z,42.64
2022-09-03T21:48:20.278Z,42.70
2022-09-03T21:50:46.613Z,42.73
2022-09-03T21:53:12.990Z,42.70
2022-09-03T21:55:39.364Z,42.73
2022-09-03T21:58:05.747Z,42.75
2022-09-03T22:00:32.117Z,42.75
2022-09-03T22:02:58.509Z,42.79
2022-09-03T22:05:24.880Z,42.79
2022-09-03T22:07:53.672Z,42.81
2022-09-03T22:10:20.231Z,42.82
2022-09-03T22:12:44.038Z,42.91
2022-09-03T22:15:10.416Z,42.87
2022-09-03T22:17:36.829Z,42.89
2022-09-03T22:20:03.208Z,42.89
2022-09-03T22:22:29.705Z,42.95
2022-09-03T22:24:56.089Z,42.98
2022-09-03T22:27:22.476Z,42.98
2022-09-03T22:29:49.205Z,42.99
2022-09-03T22:32:15.239Z,43.05
2022-09-03T22:34:41.621Z,43.10
2022-09-03T22:37:08.007Z,43.08
2022-09-03T22:39:36.374Z,43.14
2022-09-03T22:42:00.968Z,43.12
2022-09-03T22:44:27.352Z,43.18
2022-09-03T22:46:53.731Z,43.18
2022-09-03T22:49:20.108Z,43.12
2022-09-03T22:51:46.500Z,43.16
2022-09-03T22:54:12.875Z,43.23
2022-09-03T22:56:39.274Z,43.17
2022-09-03T22:59:05.686Z,43.18
2022-09-03T23:01:32.118Z,43.20
2022-09-03T23:03:58.491Z,43.23
2022-09-03T23:06:24.825Z,43.23
2022-09-03T23:08:51.221Z,43.25
2022-09-03T23:11:17.630Z,43.30
2022-09-03T23:13:44.005Z,43.25
2022-09-03T23:16:10.470Z,43.30
2022-09-03T23:18:36.796Z,43.30
2022-09-03T23:21:03.185Z,43.35
2022-09-03T23:23:29.565Z,43.30
2022-09-03T23:25:55.950Z,43.32
2022-09-03T23:28:22.380Z,43.32
2022-09-03T23:30:48.737Z,43.36
2022-09-03T23:33:15.120Z,43.38
2022-09-03T23:35:41.524Z,43.36
2022-09-03T23:38:07.949Z,43.41
2022-09-03T23:40:34.385Z,43.40
2022-09-03T23:43:00.746Z,43.43
2022-09-03T23:45:27.190Z,43.45
2022-09-03T23:47:53.515Z,43.46
2022-09-03T23:50:19.897Z,43.47
2022-09-03T23:52:46.280Z,43.48
2022-09-03T23:55:12.662Z,43.50
2022-09-03T23:57:39.275Z,43.47
